createdAt,value
2023-03-29T00:02:13.316Z,11.00
2023-03-29T00:07:23.875Z,10.20
2023-03-29T00:12:31.523Z,12.00
2023-03-29T00:17:38.750Z,11.10
2023-03-29T00:22:46.919Z,10.30
2023-03-29T00:27:54.001Z,12.20
2023-03-29T00:33:01.191Z,12.60
2023-03-29T00:38:08.388Z,12.90
2023-03-29T00:43:16.952Z,13.20
2023-03-29T00:48:29.112Z,12.40
2023-03-29T00:53:39.631Z,10.80
2023-03-29T00:58:55.086Z,11.40
2023-03-29T01:04:08.621Z,11.50
2023-03-29T01:09:17.500Z,12.90
2023-03-29T01:14:31.168Z,11.80
2023-03-29T01:19:46.584Z,11.00
2023-03-29T01:25:06.612Z,14.10
2023-03-29T01:30:17.519Z,11.30
2023-03-29T01:35:32.740Z,13.60
2023-03-29T01:40:40.300Z,14.00
2023-03-29T01:45:51.730Z,12.60
2023-03-29T01:51:06.369Z,11.30
2023-03-29T01:56:19.927Z,12.50
2023-03-29T02:01:33.190Z,13.00
2023-03-29T02:06:41.776Z,12.90
2023-03-29T02:11:49.995Z,12.50
2023-03-29T02:16:57.508Z,11.70
2023-03-29T02:27:14.067Z,14.50
2023-03-29T02:32:27.511Z,11.70
2023-03-29T02:37:41.111Z,11.10
2023-03-29T02:42:50.355Z,11.80
2023-03-29T02:48:01.465Z,10.90
2023-03-29T02:53:16.039Z,10.90
2023-03-29T02:58:26.808Z,12.00
2023-03-29T03:03:34.311Z,11.30
2023-03-29T03:08:42.598Z,15.60
2023-03-29T03:13:51.760Z,14.20
2023-03-29T03:18:59.153Z,11.90
2023-03-29T03:24:08.473Z,12.30
2023-03-29T03:29:16.432Z,10.30
2023-03-29T03:34:45.119Z,11.80
2023-03-29T03:39:52.460Z,12.80
2023-03-29T03:45:00.224Z,12.10
2023-03-29T03:50:33.642Z,11.80
2023-03-29T03:55:41.689Z,12.00
2023-03-29T04:00:53.441Z,11.60
2023-03-29T04:06:10.043Z,10.90
2023-03-29T04:11:37.404Z,11.60
2023-03-29T04:16:45.421Z,13.00
2023-03-29T04:22:18.199Z,10.60
2023-03-29T04:27:26.047Z,11.40
2023-03-29T04:32:34.221Z,18.70
2023-03-29T04:37:47.035Z,12.20
2023-03-29T04:42:56.457Z,12.20
2023-03-29T04:48:04.203Z,11.10
2023-03-29T04:58:18.983Z,10.30
2023-03-29T05:03:27.905Z,11.10
2023-03-29T05:08:41.239Z,11.10
2023-03-29T05:14:18.243Z,11.70
2023-03-29T05:19:26.000Z,13.00
2023-03-29T05:24:33.452Z,14.70
2023-03-29T05:29:52.490Z,13.50
2023-03-29T05:35:11.451Z,13.70
2023-03-29T05:40:20.029Z,16.40
2023-03-29T05:45:53.395Z,14.90
2023-03-29T05:51:03.702Z,16.80
2023-03-29T05:56:12.323Z,15.00
2023-03-29T06:01:20.618Z,12.90
2023-03-29T06:06:48.773Z,15.40
2023-03-29T06:11:57.716Z,13.90
2023-03-29T06:17:25.241Z,14.00
2023-03-29T06:22:33.389Z,14.40
2023-03-29T06:27:40.904Z,15.20
2023-03-29T06:32:50.656Z,14.70
2023-03-29T06:38:11.402Z,14.20
2023-03-29T06:43:47.983Z,15.10
2023-03-29T06:48:56.351Z,15.90
2023-03-29T06:54:06.243Z,15.60
2023-03-29T06:59:14.782Z,14.70
2023-03-29T07:04:46.292Z,15.20
2023-03-29T07:10:01.914Z,12.80
2023-03-29T07:15:33.308Z,13.60
2023-03-29T07:21:07.941Z,10.80
2023-03-29T07:26:28.541Z,10.30
2023-03-29T07:31:41.103Z,9.40
2023-03-29T07:37:11.211Z,7.70
2023-03-29T07:42:22.654Z,5.10
2023-03-29T07:47:31.826Z,5.00
2023-03-29T07:52:42.373Z,5.50
2023-03-29T07:57:51.529Z,5.80
2023-03-29T08:03:05.843Z,6.00
2023-03-29T08:08:14.406Z,6.20
2023-03-29T08:13:30.825Z,6.40
2023-03-29T08:19:01.226Z,6.30
2023-03-29T08:24:21.486Z,6.40
2023-03-29T08:29:33.431Z,6.60
2023-03-29T08:34:41.235Z,7.20
2023-03-29T08:40:09.183Z,6.90
2023-03-29T08:45:35.616Z,4.50
2023-03-29T08:50:50.157Z,4.40
2023-03-29T08:56:01.931Z,4.20
2023-03-29T09:01:35.182Z,3.80
2023-03-29T09:06:43.557Z,3.60
2023-03-29T09:12:12.079Z,4.20
2023-03-29T09:17:32.173Z,4.30
2023-03-29T09:22:49.932Z,3.50
2023-03-29T09:28:05.782Z,3.60
2023-03-29T09:33:27.273Z,3.50
2023-03-29T09:39:05.010Z,2.80
2023-03-29T09:44:30.234Z,3.00
2023-03-29T09:49:47.217Z,3.30
2023-03-29T09:54:56.099Z,3.30
2023-03-29T10:00:36.939Z,3.80
2023-03-29T10:05:47.322Z,4.00
2023-03-29T10:10:57.729Z,4.20
2023-03-29T10:16:08.326Z,3.50
2023-03-29T10:21:20.318Z,4.10
2023-03-29T10:26:32.952Z,3.70
2023-03-29T10:31:42.794Z,4.50
2023-03-29T10:36:57.684Z,4.00
2023-03-29T10:42:06.327Z,3.60
2023-03-29T10:47:19.762Z,4.10
2023-03-29T10:52:27.934Z,4.10
2023-03-29T10:57:46.280Z,3.80
2023-03-29T11:08:27.961Z,4.10
2023-03-29T11:13:44.393Z,3.20
2023-03-29T11:19:05.195Z,3.10
2023-03-29T11:24:48.904Z,3.40
2023-03-29T11:30:08.224Z,3.80
2023-03-29T11:35:31.475Z,3.50
2023-03-29T11:40:48.313Z,3.30
2023-03-29T11:46:02.712Z,3.70
2023-03-29T11:51:18.213Z,3.60
2023-03-29T11:56:32.480Z,3.30
2023-03-29T12:01:44.857Z,3.60
2023-03-29T12:07:03.051Z,3.40
2023-03-29T12:12:16.334Z,3.50
2023-03-29T12:17:29.796Z,2.40
2023-03-29T12:22:38.575Z,2.90
2023-03-29T12:27:55.033Z,2.90
2023-03-29T12:33:21.883Z,2.30
2023-03-29T12:38:35.858Z,2.50
2023-03-29T12:44:09.556Z,2.90
2023-03-29T12:49:48.517Z,3.40
2023-03-29T12:55:01.579Z,2.40
2023-03-29T13:00:28.204Z,2.60
2023-03-29T13:05:39.429Z,8.00
2023-03-29T13:10:55.894Z,3.30
2023-03-29T13:16:15.929Z,3.20
2023-03-29T13:21:32.328Z,2.80
2023-03-29T13:26:54.360Z,2.50
2023-03-29T13:32:18.139Z,2.90
2023-03-29T13:37:40.416Z,2.70
2023-03-29T13:43:06.240Z,3.50
2023-03-29T13:48:29.502Z,4.70
2023-03-29T13:53:46.340Z,3.60
2023-03-29T13:59:19.025Z,4.20
2023-03-29T14:04:30.724Z,4.30
2023-03-29T14:09:43.736Z,3.70
2023-03-29T14:14:59.198Z,3.80
2023-03-29T14:20:10.464Z,4.20
2023-03-29T14:25:21.391Z,4.80
2023-03-29T14:30:32.124Z,3.90
2023-03-29T14:35:40.565Z,4.80
2023-03-29T14:40:48.554Z,4.30
2023-03-29T14:51:02.773Z,5.00
2023-03-29T14:56:13.907Z,3.30
2023-03-29T15:01:25.346Z,5.60
2023-03-29T15:06:33.381Z,4.20
2023-03-29T15:16:49.476Z,4.70
2023-03-29T15:21:56.835Z,5.10
2023-03-29T15:27:12.436Z,4.70
2023-03-29T15:32:34.961Z,5.00
2023-03-29T15:37:44.587Z,5.00
2023-03-29T15:42:52.274Z,4.20
2023-03-29T15:48:02.075Z,4.40
2023-03-29T15:53:15.026Z,5.60
2023-03-29T15:58:25.953Z,6.70
2023-03-29T16:03:33.319Z,6.40
2023-03-29T16:08:42.072Z,6.40
2023-03-29T16:13:49.447Z,5.90
2023-03-29T16:18:56.926Z,5.60
2023-03-29T16:24:04.569Z,6.20
2023-03-29T16:29:12.513Z,5.10
2023-03-29T16:34:20.337Z,5.10
2023-03-29T16:39:27.828Z,5.60
2023-03-29T16:44:34.972Z,5.50
2023-03-29T16:49:44.341Z,5.40
2023-03-29T16:54:54.353Z,6.90
2023-03-29T17:00:01.516Z,8.30
2023-03-29T17:05:11.195Z,9.20
2023-03-29T17:10:19.040Z,8.80
2023-03-29T17:15:26.580Z,8.40
2023-03-29T17:20:33.770Z,8.00
2023-03-29T17:25:40.994Z,8.50
2023-03-29T17:30:49.058Z,7.50
2023-03-29T17:35:57.811Z,7.50
2023-03-29T17:41:08.069Z,6.90
2023-03-29T17:46:23.463Z,8.60
2023-03-29T17:51:31.144Z,8.00
2023-03-29T17:56:39.695Z,9.90
2023-03-29T18:01:46.971Z,9.30
2023-03-29T18:06:55.127Z,7.50
2023-03-29T18:12:02.344Z,10.50
2023-03-29T18:17:09.838Z,9.80
2023-03-29T18:22:17.974Z,8.60
2023-03-29T18:32:30.598Z,8.90
2023-03-29T18:37:38.025Z,10.00
2023-03-29T18:42:45.154Z,10.50
2023-03-29T18:47:52.511Z,10.70
2023-03-29T18:53:02.417Z,11.90
2023-03-29T18:58:09.676Z,12.70
2023-03-29T19:03:16.909Z,13.50
2023-03-29T19:08:25.845Z,14.90
2023-03-29T19:13:33.084Z,15.10
2023-03-29T19:18:40.270Z,15.80
2023-03-29T19:23:47.530Z,16.70
2023-03-29T19:28:54.635Z,15.20
2023-03-29T19:34:19.791Z,16.00
2023-03-29T19:39:29.570Z,16.20
2023-03-29T19:44:38.495Z,15.50
2023-03-29T19:49:47.095Z,13.60
2023-03-29T19:54:54.413Z,12.70
2023-03-29T20:00:02.214Z,13.10
2023-03-29T20:05:21.882Z,15.40
2023-03-29T20:10:29.339Z,16.60
2023-03-29T20:15:36.518Z,17.10
2023-03-29T20:20:44.758Z,18.30
2023-03-29T20:25:52.729Z,17.40
2023-03-29T20:36:06.819Z,17.20
2023-03-29T20:41:14.339Z,17.40
2023-03-29T20:46:24.089Z,18.30
2023-03-29T20:51:32.225Z,16.80
2023-03-29T20:56:42.635Z,15.20
2023-03-29T21:01:50.528Z,15.50
2023-03-29T21:07:00.972Z,15.40
2023-03-29T21:12:10.479Z,15.10
2023-03-29T21:17:17.600Z,15.50
2023-03-29T21:22:24.804Z,15.40
2023-03-29T21:27:31.915Z,15.70
2023-03-29T21:32:39.186Z,15.80
2023-03-29T21:37:46.485Z,15.60
2023-03-29T21:42:53.608Z,15.30
2023-03-29T21:48:01.013Z,14.40
2023-03-29T21:53:08.616Z,14.80
2023-03-29T21:58:16.190Z,13.00
2023-03-29T22:03:23.412Z,14.40
2023-03-29T22:08:30.909Z,13.50
2023-03-29T22:13:38.946Z,14.10
2023-03-29T22:23:57.071Z,13.40
2023-03-29T22:29:04.693Z,12.50
2023-03-29T22:34:13.036Z,13.00
2023-03-29T22:39:20.162Z,12.10
2023-03-29T22:44:27.293Z,12.30
2023-03-29T22:49:34.382Z,12.60
2023-03-29T22:54:41.439Z,13.40
2023-03-29T22:59:48.538Z,13.00
2023-03-29T23:04:56.948Z,12.40
2023-03-29T23:10:04.234Z,12.70
2023-03-29T23:15:13.876Z,12.80
2023-03-29T23:20:21.381Z,12.00
2023-03-29T23:25:30.190Z,13.30
2023-03-29T23:30:38.802Z,14.00
2023-03-29T23:35:46.828Z,14.40
2023-03-29T23:41:01.013Z,13.40
2023-03-29T23:46:10.813Z,15.10
2023-03-29T23:51:23.262Z,13.90
2023-03-29T23:56:32.646Z,14.00
